Time;durP1;ratioP1;P1;durP2;ratioP2;P2;SDS_P1;SDS_P2;PMS_P1;PMS_P2;Temp;Humidity;BMP_temperature;BMP_pressure;BME280_temperature;BME280_humidity;BME280_pressure;Samples;Min_cycle;Max_cycle;Signal;HPM_P1;HPM_P2
2023/01/12 00:01:27;;;;;;;5.95;2.00;;;;;;;;;;4999724;28;20103;-79
2023/01/12 00:03:53;;;;;;;4.57;1.60;;;;;;;;;;5015546;28;20504;-79
2023/01/12 00:06:20;;;;;;;6.68;1.90;;;;;;;;;;5015901;28;20033;-79
2023/01/12 00:08:46;;;;;;;4.30;1.40;;;;;;;;;;5015772;28;20387;-79
2023/01/12 00:11:12;;;;;;;4.70;1.83;;;;;;;;;;5015404;28;20137;-80
2023/01/12 00:13:37;;;;;;;2.75;1.45;;;;;;;;;;4999545;28;20100;-79
2023/01/12 00:18:48;;;;;;;5.13;1.65;;;;;;;;;;5033059;28;20036;-80
2023/01/12 00:21:14;;;;;;;6.97;1.80;;;;;;;;;;5014204;28;20048;-79
2023/01/12 00:23:41;;;;;;;3.38;1.63;;;;;;;;;;5018507;28;20152;-79
2023/01/12 00:26:07;;;;;;;4.50;1.70;;;;;;;;;;5035831;28;20116;-79
2023/01/12 00:28:36;;;;;;;5.55;1.67;;;;;;;;;;5035013;28;20056;-79
2023/01/12 00:31:05;;;;;;;6.50;1.80;;;;;;;;;;5035157;28;20442;-79
2023/01/12 00:33:31;;;;;;;4.90;1.63;;;;;;;;;;5035573;28;20027;-79
2023/01/12 00:35:56;;;;;;;4.50;1.95;;;;;;;;;;5034950;28;20124;-79
2023/01/12 00:38:22;;;;;;;8.13;1.80;;;;;;;;;;5051407;28;20029;-79
2023/01/12 00:40:48;;;;;;;4.22;1.60;;;;;;;;;;5035097;28;20028;-79
2023/01/12 00:45:57;;;;;;;4.30;1.40;;;;;;;;;;5053083;28;20388;-79
2023/01/12 00:48:23;;;;;;;3.30;1.48;;;;;;;;;;5034951;28;20471;-79
2023/01/12 00:50:48;;;;;;;8.57;2.03;;;;;;;;;;5034932;28;20075;-79
2023/01/12 00:53:13;;;;;;;6.35;2.20;;;;;;;;;;5038862;28;20056;-79
2023/01/12 00:55:39;;;;;;;5.15;2.30;;;;;;;;;;5038726;28;20048;-79
2023/01/12 00:58:04;;;;;;;6.47;2.08;;;;;;;;;;5022286;28;20153;-78
2023/01/12 01:00:29;;;;;;;4.15;1.60;;;;;;;;;;5056689;28;20029;-78
2023/01/12 01:02:55;;;;;;;3.10;1.48;;;;;;;;;;5056703;28;20029;-79
2023/01/12 01:05:21;;;;;;;4.00;1.70;;;;;;;;;;5038721;28;20510;-78
2023/01/12 01:07:46;;;;;;;4.95;1.58;;;;;;;;;;5056569;28;20116;-79
2023/01/12 01:10:13;;;;;;;5.00;1.70;;;;;;;;;;5056599;28;20392;-79
2023/01/12 01:12:39;;;;;;;4.88;1.95;;;;;;;;;;5056316;28;20053;-79
2023/01/12 01:15:05;;;;;;;3.55;2.03;;;;;;;;;;5038800;28;20424;-79
2023/01/12 01:17:31;;;;;;;8.10;2.10;;;;;;;;;;5038311;28;20122;-78
2023/01/12 01:19:56;;;;;;;5.68;1.95;;;;;;;;;;5038354;28;20507;-79
2023/01/12 01:22:21;;;;;;;4.78;1.73;;;;;;;;;;5038617;28;20383;-79
2023/01/12 01:24:47;;;;;;;4.65;2.00;;;;;;;;;;5056005;28;20033;-79
2023/01/12 01:27:12;;;;;;;5.97;1.75;;;;;;;;;;5054748;28;20472;-79
2023/01/12 01:29:38;;;;;;;4.32;1.63;;;;;;;;;;5056217;28;20093;-79
2023/01/12 01:32:04;;;;;;;4.38;1.50;;;;;;;;;;5056239;28;20033;-79
2023/01/12 01:34:29;;;;;;;4.53;1.90;;;;;;;;;;5055979;28;20041;-80
2023/01/12 01:36:55;;;;;;;6.43;2.20;;;;;;;;;;5055911;28;20498;-79
2023/01/12 01:39:20;;;;;;;5.15;1.67;;;;;;;;;;5038114;28;20041;-80
2023/01/12 01:41:46;;;;;;;10.80;1.88;;;;;;;;;;5056170;28;20078;-79
2023/01/12 01:44:30;;;;;;;5.28;1.90;;;;;;;;;;5055878;28;20039;-79
2023/01/12 01:47:01;;;;;;;5.10;1.67;;;;;;;;;;5055967;28;20036;-79
2023/01/12 01:49:29;;;;;;;7.72;1.90;;;;;;;;;;5038050;28;20124;-79
2023/01/12 01:52:21;;;;;;;5.43;2.00;;;;;;;;;;5055676;28;20134;-79
2023/01/12 01:55:15;;;;;;;6.05;2.30;;;;;;;;;;5055261;28;20037;-79
2023/01/12 01:57:47;;;;;;;8.65;2.08;;;;;;;;;;5036319;28;20037;-79
2023/01/12 02:00:13;;;;;;;4.80;1.88;;;;;;;;;;5037520;28;20526;-79
2023/01/12 02:02:39;;;;;;;7.95;1.75;;;;;;;;;;5037733;28;20033;-79
2023/01/12 02:05:05;;;;;;;5.72;1.67;;;;;;;;;;5037971;28;20104;-79
2023/01/12 02:07:31;;;;;;;4.72;1.55;;;;;;;;;;5038460;28;20119;-79
2023/01/12 02:09:56;;;;;;;6.32;1.95;;;;;;;;;;5055209;28;20066;-79
2023/01/12 02:18:12;;;;;;;3.97;1.63;;;;;;;;;;5039943;28;20043;-79
2023/01/12 02:20:40;;;;;;;5.18;1.77;;;;;;;;;;5010036;28;20104;-79
2023/01/12 02:23:26;;;;;;;5.90;1.70;;;;;;;;;;5017213;28;20451;-79
2023/01/12 02:26:21;;;;;;;3.88;1.80;;;;;;;;;;5017443;28;20104;-79
2023/01/12 02:28:49;;;;;;;4.50;1.58;;;;;;;;;;5034154;28;20432;-79
2023/01/12 02:31:36;;;;;;;5.00;1.52;;;;;;;;;;5034823;28;20037;-79
2023/01/12 02:34:26;;;;;;;4.68;2.05;;;;;;;;;;5034873;28;20032;-79
2023/01/12 02:37:14;;;;;;;3.90;1.85;;;;;;;;;;5034750;28;20025;-79
2023/01/12 02:39:57;;;;;;;3.13;1.77;;;;;;;;;;5017095;28;20021;-79
2023/01/12 02:42:40;;;;;;;6.18;1.60;;;;;;;;;;5001505;28;20059;-79
2023/01/12 02:45:11;;;;;;;5.45;1.50;;;;;;;;;;5018377;28;20100;-79
2023/01/12 02:47:45;;;;;;;4.68;1.58;;;;;;;;;;5017107;28;20022;-79
2023/01/12 02:50:16;;;;;;;4.20;1.70;;;;;;;;;;5034772;28;20120;-79
2023/01/12 02:52:43;;;;;;;4.10;1.52;;;;;;;;;;5016949;28;20104;-79
2023/01/12 02:55:09;;;;;;;4.05;1.67;;;;;;;;;;5016929;28;20021;-79
2023/01/12 02:57:35;;;;;;;5.30;1.58;;;;;;;;;;5016764;28;20392;-79
2023/01/12 03:00:02;;;;;;;3.33;1.42;;;;;;;;;;5016705;28;20049;-79
2023/01/12 03:02:28;;;;;;;3.92;1.55;;;;;;;;;;5016667;28;20447;-79
2023/01/12 03:04:54;;;;;;;2.50;1.23;;;;;;;;;;5017325;28;20034;-79
2023/01/12 03:07:22;;;;;;;4.50;1.85;;;;;;;;;;5000241;28;20079;-79
2023/01/12 03:09:51;;;;;;;3.75;1.17;;;;;;;;;;5034347;28;20025;-79
2023/01/12 03:12:23;;;;;;;3.35;1.50;;;;;;;;;;5016596;28;20032;-79
2023/01/12 03:14:50;;;;;;;1.95;1.02;;;;;;;;;;4999165;28;20025;-79
2023/01/12 03:17:27;;;;;;;3.08;1.30;;;;;;;;;;5000253;28;20068;-79
2023/01/12 03:19:54;;;;;;;2.92;1.25;;;;;;;;;;5016563;28;20052;-79
2023/01/12 03:22:20;;;;;;;2.45;1.52;;;;;;;;;;5034398;28;20547;-79
2023/01/12 03:24:49;;;;;;;2.30;1.20;;;;;;;;;;5036131;28;20029;-79
2023/01/12 03:27:23;;;;;;;3.00;1.40;;;;;;;;;;5036285;28;20024;-79
2023/01/12 03:30:12;;;;;;;3.97;1.27;;;;;;;;;;5019619;28;20029;-79
2023/01/12 03:32:37;;;;;;;2.70;1.15;;;;;;;;;;5035808;28;20029;-79
2023/01/12 03:35:04;;;;;;;3.28;1.15;;;;;;;;;;5035754;28;20029;-80
2023/01/12 03:38:09;;;;;;;2.85;1.25;;;;;;;;;;5035914;28;20040;-79
2023/01/12 03:40:38;;;;;;;3.05;1.23;;;;;;;;;;5006066;28;20602;-79
2023/01/12 03:43:06;;;;;;;2.33;1.15;;;;;;;;;;5036002;28;20021;-80
2023/01/12 03:45:48;;;;;;;2.10;1.05;;;;;;;;;;5035479;28;20025;-78
2023/01/12 03:48:25;;;;;;;4.65;1.30;;;;;;;;;;5053417;28;20036;-78
2023/01/12 03:50:56;;;;;;;3.42;1.40;;;;;;;;;;5035611;28;20033;-79
2023/01/12 03:53:22;;;;;;;3.42;1.30;;;;;;;;;;5019356;28;20609;-78
2023/01/12 03:55:50;;;;;;;2.85;1.00;;;;;;;;;;5019043;28;20124;-78
2023/01/12 03:58:16;;;;;;;1.98;1.10;;;;;;;;;;5053246;28;20021;-79
2023/01/12 04:00:42;;;;;;;1.80;1.00;;;;;;;;;;5018884;28;20029;-78
2023/01/12 04:03:10;;;;;;;2.28;1.35;;;;;;;;;;5053193;28;20024;-79
2023/01/12 04:05:36;;;;;;;1.88;1.30;;;;;;;;;;5035715;28;20024;-79
2023/01/12 04:08:02;;;;;;;2.08;0.95;;;;;;;;;;5053418;28;20487;-79
2023/01/12 04:10:27;;;;;;;3.15;1.30;;;;;;;;;;5018708;28;20468;-79
2023/01/12 04:12:52;;;;;;;6.90;1.48;;;;;;;;;;5035205;28;20028;-78
2023/01/12 04:15:18;;;;;;;3.38;1.42;;;;;;;;;;5053121;28;20029;-79
2023/01/12 04:17:43;;;;;;;2.28;1.20;;;;;;;;;;5052943;28;20028;-79
2023/01/12 04:20:09;;;;;;;2.85;1.15;;;;;;;;;;5052464;28;20120;-79
2023/01/12 04:22:44;;;;;;;2.38;1.20;;;;;;;;;;4999179;28;20137;-79
2023/01/12 04:25:19;;;;;;;4.68;1.27;;;;;;;;;;5032890;28;20203;-79
2023/01/12 04:27:47;;;;;;;6.88;1.50;;;;;;;;;;5015455;28;20037;-81
2023/01/12 04:30:13;;;;;;;0.93;0.90;;;;;;;;;;5033020;28;20108;-80
2023/01/12 04:32:38;;;;;;;1.55;1.13;;;;;;;;;;5015230;28;20038;-81
2023/01/12 04:35:05;;;;;;;1.90;1.08;;;;;;;;;;4998749;28;20124;-80
2023/01/12 04:37:32;;;;;;;1.20;0.98;;;;;;;;;;5033520;28;20057;-80
2023/01/12 04:39:57;;;;;;;3.72;1.15;;;;;;;;;;5033048;28;20025;-78
2023/01/12 04:45:07;;;;;;;2.53;1.17;;;;;;;;;;5033132;28;20040;-79
2023/01/12 04:47:33;;;;;;;2.67;0.93;;;;;;;;;;5015051;28;20038;-79
2023/01/12 04:49:58;;;;;;;1.85;0.82;;;;;;;;;;5033177;28;20033;-79
2023/01/12 04:52:24;;;;;;;5.85;1.30;;;;;;;;;;5015381;28;20104;-79
2023/01/12 04:54:49;;;;;;;2.75;1.30;;;;;;;;;;5032637;28;20033;-79
2023/01/12 04:57:14;;;;;;;2.58;1.02;;;;;;;;;;5015165;28;20436;-79
2023/01/12 04:59:40;;;;;;;2.58;1.20;;;;;;;;;;5033089;28;20072;-79
2023/01/12 05:02:05;;;;;;;1.98;0.82;;;;;;;;;;5015002;28;20029;-80
2023/01/12 05:04:30;;;;;;;1.65;1.05;;;;;;;;;;5015624;28;20029;-80
2023/01/12 05:06:56;;;;;;;5.10;1.10;;;;;;;;;;5033492;28;20393;-79
2023/01/12 05:12:05;;;;;;;2.88;0.98;;;;;;;;;;5032981;28;20063;-78
2023/01/12 05:14:30;;;;;;;1.02;0.63;;;;;;;;;;5032838;28;20054;-79
2023/01/12 05:16:56;;;;;;;3.20;1.08;;;;;;;;;;5032817;28;20025;-79
2023/01/12 05:19:21;;;;;;;2.58;1.00;;;;;;;;;;5015274;28;20029;-79
2023/01/12 05:21:46;;;;;;;1.85;0.95;;;;;;;;;;5044570;28;20037;-79
2023/01/12 05:24:12;;;;;;;6.55;1.30;;;;;;;;;;5035133;28;20035;-80
2023/01/12 05:26:37;;;;;;;2.90;1.00;;;;;;;;;;5052826;28;20033;-79
2023/01/12 05:29:03;;;;;;;8.95;1.30;;;;;;;;;;5035158;28;20120;-78
2023/01/12 05:31:28;;;;;;;7.20;1.20;;;;;;;;;;5034813;28;20029;-80
2023/01/12 05:33:53;;;;;;;4.18;1.40;;;;;;;;;;5052591;28;20365;-77
2023/01/12 05:36:19;;;;;;;2.45;1.00;;;;;;;;;;5052690;28;20028;-78
2023/01/12 05:38:44;;;;;;;4.80;1.15;;;;;;;;;;5055472;28;20033;-79
2023/01/12 05:41:11;;;;;;;5.85;1.40;;;;;;;;;;5038396;28;20017;-78
2023/01/12 05:43:49;;;;;;;3.30;1.02;;;;;;;;;;5056684;28;20025;-77
2023/01/12 05:46:28;;;;;;;4.75;1.15;;;;;;;;;;5056364;28;20039;-78
2023/01/12 05:48:55;;;;;;;8.02;1.33;;;;;;;;;;5038354;28;20086;-78
2023/01/12 05:51:20;;;;;;;2.85;1.10;;;;;;;;;;5038363;28;20140;-77
2023/01/12 05:53:46;;;;;;;3.88;1.08;;;;;;;;;;5037906;28;20492;-78
2023/01/12 05:56:15;;;;;;;10.80;2.78;;;;;;;;;;5038256;28;20032;-77
2023/01/12 05:58:40;;;;;;;11.98;3.63;;;;;;;;;;5055970;28;20025;-77
2023/01/12 06:01:07;;;;;;;10.77;2.83;;;;;;;;;;5054813;28;20033;-77
2023/01/12 06:03:34;;;;;;;11.52;2.65;;;;;;;;;;5021313;28;20040;-77
2023/01/12 06:05:59;;;;;;;10.82;2.40;;;;;;;;;;5021323;28;20036;-76
2023/01/12 06:08:24;;;;;;;9.30;2.53;;;;;;;;;;5055938;28;20025;-77
2023/01/12 06:10:50;;;;;;;11.57;2.60;;;;;;;;;;5021136;28;20048;-76
2023/01/12 06:16:04;;;;;;;4.28;1.58;;;;;;;;;;5055534;28;20395;-76
2023/01/12 06:18:37;;;;;;;4.95;1.95;;;;;;;;;;5055423;28;20037;-77
2023/01/12 06:21:04;;;;;;;5.72;1.60;;;;;;;;;;5031654;28;20081;-77
2023/01/12 06:23:29;;;;;;;5.57;1.65;;;;;;;;;;5017774;28;20045;-77
2023/01/12 06:25:55;;;;;;;4.68;1.95;;;;;;;;;;5017761;28;20021;-77
2023/01/12 06:28:20;;;;;;;4.07;1.40;;;;;;;;;;5017685;28;20025;-76
2023/01/12 06:31:03;;;;;;;7.07;1.77;;;;;;;;;;5035723;28;20025;-77
2023/01/12 06:33:28;;;;;;;3.40;1.42;;;;;;;;;;5017814;28;20035;-77
2023/01/12 06:35:54;;;;;;;6.10;1.85;;;;;;;;;;5017627;28;20096;-76
2023/01/12 06:38:21;;;;;;;5.22;1.80;;;;;;;;;;5017836;28;20464;-76
2023/01/12 06:40:46;;;;;;;3.22;1.38;;;;;;;;;;5017491;28;20361;-77
2023/01/12 06:43:11;;;;;;;5.00;1.65;;;;;;;;;;5000939;28;20033;-77
2023/01/12 06:45:37;;;;;;;2.97;1.27;;;;;;;;;;5017319;28;20029;-77
2023/01/12 06:48:02;;;;;;;2.10;1.15;;;;;;;;;;5017490;28;20538;-76
2023/01/12 06:50:28;;;;;;;3.20;1.10;;;;;;;;;;5017820;28;20042;-77
2023/01/12 06:52:55;;;;;;;3.53;1.13;;;;;;;;;;5017577;28;20469;-77
2023/01/12 06:55:20;;;;;;;4.40;1.40;;;;;;;;;;5000781;28;20033;-77
2023/01/12 06:57:46;;;;;;;5.45;1.13;;;;;;;;;;5000720;28;20503;-77
2023/01/12 07:00:12;;;;;;;2.58;1.08;;;;;;;;;;5034723;28;20025;-77
2023/01/12 07:02:38;;;;;;;2.42;1.25;;;;;;;;;;5016808;28;20116;-77
2023/01/12 07:05:04;;;;;;;2.03;1.10;;;;;;;;;;4983984;28;20116;-77
2023/01/12 07:07:29;;;;;;;2.88;1.15;;;;;;;;;;5000364;28;20033;-77
2023/01/12 07:09:55;;;;;;;3.10;1.10;;;;;;;;;;5000209;28;20034;-77
2023/01/12 07:12:20;;;;;;;2.75;1.15;;;;;;;;;;5016946;28;20048;-77
2023/01/12 07:14:46;;;;;;;1.95;0.80;;;;;;;;;;5016733;28;20052;-77
2023/01/12 07:17:11;;;;;;;1.73;0.80;;;;;;;;;;5016422;28;20414;-77
2023/01/12 07:19:37;;;;;;;0.60;0.60;;;;;;;;;;5034285;28;20029;-77
2023/01/12 07:22:02;;;;;;;4.15;1.10;;;;;;;;;;5010338;28;20100;-76
2023/01/12 07:24:27;;;;;;;1.30;0.80;;;;;;;;;;5049597;28;20365;-77
2023/01/12 07:26:53;;;;;;;0.70;0.60;;;;;;;;;;5033956;28;20056;-77
2023/01/12 07:29:18;;;;;;;0.73;0.50;;;;;;;;;;5049849;28;20487;-77
2023/01/12 07:31:44;;;;;;;3.15;0.75;;;;;;;;;;5034104;28;20049;-77
2023/01/12 07:34:10;;;;;;;2.67;0.88;;;;;;;;;;5000213;28;20060;-77
2023/01/12 07:36:35;;;;;;;0.82;0.60;;;;;;;;;;5032974;28;20083;-77
2023/01/12 07:39:00;;;;;;;3.08;0.65;;;;;;;;;;5033948;28;20395;-78
2023/01/12 07:44:10;;;;;;;1.55;0.60;;;;;;;;;;5047266;28;20107;-78
2023/01/12 07:46:35;;;;;;;0.73;0.40;;;;;;;;;;5033860;28;20469;-77
2023/01/12 07:49:01;;;;;;;1.23;0.70;;;;;;;;;;5032453;28;20032;-78
2023/01/12 07:51:26;;;;;;;2.03;0.68;;;;;;;;;;5049254;28;20030;-77
2023/01/12 07:53:51;;;;;;;1.02;0.60;;;;;;;;;;5032622;28;20396;-77
2023/01/12 07:56:18;;;;;;;0.60;0.50;;;;;;;;;;5032391;28;20033;-77
2023/01/12 07:58:46;;;;;;;1.25;0.52;;;;;;;;;;5049106;28;20084;-76
2023/01/12 08:01:11;;;;;;;1.05;0.50;;;;;;;;;;5015394;28;20029;-77
2023/01/12 08:03:37;;;;;;;1.42;0.63;;;;;;;;;;5033810;28;20436;-77
2023/01/12 08:06:03;;;;;;;0.40;0.40;;;;;;;;;;5016040;28;20450;-77
2023/01/12 08:08:28;;;;;;;0.50;0.50;;;;;;;;;;5016352;28;20108;-77
2023/01/12 08:10:54;;;;;;;1.48;0.75;;;;;;;;;;5032228;28;20033;-77
2023/01/12 08:13:21;;;;;;;0.40;0.40;;;;;;;;;;5015792;28;20033;-78
2023/01/12 08:15:48;;;;;;;0.73;0.45;;;;;;;;;;5033462;28;20033;-77
2023/01/12 08:18:24;;;;;;;0.52;0.40;;;;;;;;;;5034151;28;20021;-77
2023/01/12 08:20:50;;;;;;;0.77;0.40;;;;;;;;;;5019686;28;20488;-77
2023/01/12 08:23:19;;;;;;;1.38;0.60;;;;;;;;;;5035372;28;20032;-77
2023/01/12 08:25:53;;;;;;;0.55;0.50;;;;;;;;;;5035578;28;20028;-77
2023/01/12 08:28:22;;;;;;;0.98;0.40;;;;;;;;;;5035985;28;20099;-77
2023/01/12 08:30:47;;;;;;;0.47;0.38;;;;;;;;;;5053128;28;20373;-77
2023/01/12 08:33:13;;;;;;;0.30;0.30;;;;;;;;;;5053415;28;20065;-77
2023/01/12 08:35:39;;;;;;;0.70;0.70;;;;;;;;;;5053234;28;20036;-77
2023/01/12 08:38:04;;;;;;;0.47;0.40;;;;;;;;;;5035307;28;20029;-77
2023/01/12 08:44:00;;;;;;;0.47;0.45;;;;;;;;;;5053051;28;20111;-77
2023/01/12 08:46:06;;;;;;;0.65;0.63;;;;;;;;;;5051762;28;20064;-77
2023/01/12 08:48:35;;;;;;;0.98;0.55;;;;;;;;;;5036295;28;20109;-77
2023/01/12 08:51:01;;;;;;;0.80;0.60;;;;;;;;;;5051807;28;20067;-77
2023/01/12 08:53:26;;;;;;;2.45;0.60;;;;;;;;;;5051905;28;20104;-77
2023/01/12 08:55:52;;;;;;;0.82;0.68;;;;;;;;;;5035029;28;20106;-76
2023/01/12 08:58:18;;;;;;;1.40;0.85;;;;;;;;;;5052915;28;20040;-77
2023/01/12 09:00:43;;;;;;;1.70;0.70;;;;;;;;;;5035059;28;20029;-77
2023/01/12 09:03:08;;;;;;;1.25;0.70;;;;;;;;;;5052006;28;20384;-77
2023/01/12 09:05:34;;;;;;;1.38;0.80;;;;;;;;;;5035034;28;20029;-78
2023/01/12 09:07:59;;;;;;;1.02;0.60;;;;;;;;;;5034997;28;20037;-78
2023/01/12 09:10:25;;;;;;;0.70;0.60;;;;;;;;;;5052987;28;20104;-78
2023/01/12 09:12:50;;;;;;;1.17;0.52;;;;;;;;;;5054283;28;20032;-76
2023/01/12 09:15:16;;;;;;;1.05;0.60;;;;;;;;;;5039190;28;20054;-77
2023/01/12 09:17:43;;;;;;;2.65;0.98;;;;;;;;;;5022104;28;20052;-77
2023/01/12 09:20:09;;;;;;;1.48;0.57;;;;;;;;;;5038896;28;20083;-77
2023/01/12 09:22:37;;;;;;;2.30;0.95;;;;;;;;;;5004109;28;20053;-78
2023/01/12 09:25:02;;;;;;;2.63;0.73;;;;;;;;;;4986249;28;20546;-77
2023/01/12 09:27:27;;;;;;;1.88;0.80;;;;;;;;;;5036846;28;20033;-78
2023/01/12 09:29:53;;;;;;;2.40;0.70;;;;;;;;;;5036931;28;20116;-78
2023/01/12 09:32:19;;;;;;;5.40;0.80;;;;;;;;;;5018794;28;20029;-77
2023/01/12 09:34:47;;;;;;;2.25;0.90;;;;;;;;;;5017899;28;20083;-77
2023/01/12 09:37:12;;;;;;;5.57;1.10;;;;;;;;;;5018671;28;20027;-77
2023/01/12 09:39:38;;;;;;;6.03;1.00;;;;;;;;;;5019171;28;20168;-77
2023/01/12 09:48:02;;;;;;;4.20;0.85;;;;;;;;;;5021289;28;20411;-78
2023/01/12 09:50:33;;;;;;;6.10;0.98;;;;;;;;;;5037925;28;20124;-76
2023/01/12 09:53:12;;;;;;;2.30;1.00;;;;;;;;;;5016444;28;20017;-78
2023/01/12 09:56:01;;;;;;;2.25;1.00;;;;;;;;;;5017754;28;20025;-77
2023/01/12 09:58:48;;;;;;;2.35;0.93;;;;;;;;;;5018223;28;20022;-77
2023/01/12 10:01:15;;;;;;;5.28;1.90;;;;;;;;;;5036838;28;20025;-76
2023/01/12 10:03:41;;;;;;;3.65;1.67;;;;;;;;;;5018554;28;20080;-77
2023/01/12 10:06:13;;;;;;;3.92;1.23;;;;;;;;;;5018537;28;20144;-77
2023/01/12 10:08:39;;;;;;;5.65;1.08;;;;;;;;;;5001928;28;20034;-77
2023/01/12 10:11:16;;;;;;;4.30;1.13;;;;;;;;;;5017999;28;20033;-77
2023/01/12 10:13:51;;;;;;;3.30;1.20;;;;;;;;;;5001695;28;20057;-77
2023/01/12 10:16:23;;;;;;;2.83;1.00;;;;;;;;;;5050971;28;20060;-77
2023/01/12 10:18:52;;;;;;;3.13;1.35;;;;;;;;;;5018084;28;20112;-77
2023/01/12 10:21:17;;;;;;;3.25;1.58;;;;;;;;;;5025457;28;20041;-77
2023/01/12 10:23:43;;;;;;;4.15;1.17;;;;;;;;;;5055201;28;20040;-77
2023/01/12 10:26:21;;;;;;;4.05;1.20;;;;;;;;;;5055436;28;20037;-77
2023/01/12 10:28:51;;;;;;;3.05;1.20;;;;;;;;;;5054408;28;20029;-77
2023/01/12 10:31:20;;;;;;;4.40;1.50;;;;;;;;;;5021175;28;20021;-77
2023/01/12 10:34:09;;;;;;;4.38;1.35;;;;;;;;;;5037608;28;20032;-77
2023/01/12 10:36:48;;;;;;;2.42;1.20;;;;;;;;;;5021687;28;20509;-77
2023/01/12 10:39:33;;;;;;;6.70;1.33;;;;;;;;;;5056586;28;20138;-77
2023/01/12 10:43:17;;;;;;;3.45;1.23;;;;;;;;;;5055866;28;20025;-77
2023/01/12 10:45:20;;;;;;;6.60;1.98;;;;;;;;;;5055021;28;20025;-77
2023/01/12 10:47:48;;;;;;;4.45;1.35;;;;;;;;;;5042825;28;20613;-78
2023/01/12 10:50:28;;;;;;;14.20;2.03;;;;;;;;;;5038531;28;20040;-78
2023/01/12 10:53:26;;;;;;;7.22;1.42;;;;;;;;;;5038981;28;20503;-77
2023/01/12 10:55:52;;;;;;;5.18;1.80;;;;;;;;;;5051886;28;20063;-77
2023/01/12 10:58:35;;;;;;;5.07;1.45;;;;;;;;;;5020448;28;20033;-78
2023/01/12 11:01:04;;;;;;;7.80;2.15;;;;;;;;;;5055123;28;20029;-77
2023/01/12 11:03:33;;;;;;;6.03;1.48;;;;;;;;;;5036990;28;20043;-78
2023/01/12 11:06:23;;;;;;;8.13;1.85;;;;;;;;;;5053519;28;20475;-77
2023/01/12 11:08:48;;;;;;;6.75;1.63;;;;;;;;;;5020387;28;20035;-78
2023/01/12 11:11:23;;;;;;;5.53;1.60;;;;;;;;;;5020070;28;20033;-78
2023/01/12 11:14:00;;;;;;;4.97;1.80;;;;;;;;;;5036786;28;20399;-77
2023/01/12 11:16:31;;;;;;;2.85;1.40;;;;;;;;;;5036962;28;20025;-76
2023/01/12 11:19:09;;;;;;;5.72;1.73;;;;;;;;;;5035042;28;20408;-78
2023/01/12 11:21:37;;;;;;;7.78;1.80;;;;;;;;;;5000242;28;20140;-79
2023/01/12 11:24:12;;;;;;;2.15;1.10;;;;;;;;;;4999848;28;20028;-77
2023/01/12 11:26:47;;;;;;;3.90;1.30;;;;;;;;;;5012259;28;20025;-77
2023/01/12 11:29:58;;;;;;;4.05;1.33;;;;;;;;;;5032358;28;20040;-78
2023/01/12 11:32:43;;;;;;;5.82;1.85;;;;;;;;;;5013820;28;20036;-77
2023/01/12 11:35:15;;;;;;;5.13;1.63;;;;;;;;;;5049074;28;20480;-77
2023/01/12 11:37:41;;;;;;;3.67;1.45;;;;;;;;;;5034092;28;20061;-78
2023/01/12 11:40:17;;;;;;;3.90;1.67;;;;;;;;;;5034214;28;20022;-77
2023/01/12 11:45:38;;;;;;;6.32;1.42;;;;;;;;;;5033075;28;20112;-78
2023/01/12 11:48:16;;;;;;;4.43;1.40;;;;;;;;;;5034047;28;20029;-78
2023/01/12 11:50:41;;;;;;;5.18;1.30;;;;;;;;;;5049395;28;20042;-78
2023/01/12 11:53:19;;;;;;;3.35;1.23;;;;;;;;;;5032631;28;20025;-78
2023/01/12 11:55:57;;;;;;;6.60;1.55;;;;;;;;;;5049173;28;20026;-78
2023/01/12 11:58:51;;;;;;;5.30;2.10;;;;;;;;;;5033779;28;20021;-78
2023/01/12 12:02:04;;;;;;;5.18;2.78;;;;;;;;;;5049022;28;20059;-78
2023/01/12 12:04:47;;;;;;;5.05;2.20;;;;;;;;;;5010999;28;20042;-79
2023/01/12 12:07:35;;;;;;;5.10;2.72;;;;;;;;;;5034237;28;20025;-79
2023/01/12 12:10:21;;;;;;;10.18;3.13;;;;;;;;;;5033517;28;20083;-78
2023/01/12 12:13:13;;;;;;;9.07;3.42;;;;;;;;;;5033500;28;20352;-79
2023/01/12 12:16:01;;;;;;;8.50;3.78;;;;;;;;;;5015812;28;20029;-79
2023/01/12 12:18:40;;;;;;;6.72;3.58;;;;;;;;;;5048861;28;20029;-79
2023/01/12 12:21:33;;;;;;;7.53;3.70;;;;;;;;;;5015630;28;20050;-77
2023/01/12 12:23:59;;;;;;;7.00;3.60;;;;;;;;;;5048997;28;20041;-77
2023/01/12 12:26:32;;;;;;;5.00;3.42;;;;;;;;;;5033402;28;20033;-77
2023/01/12 12:29:03;;;;;;;5.68;3.22;;;;;;;;;;5048883;28;20040;-77
2023/01/12 12:32:01;;;;;;;5.70;3.33;;;;;;;;;;5033070;28;20029;-77
2023/01/12 12:34:42;;;;;;;5.93;3.13;;;;;;;;;;5020068;28;20038;-77
2023/01/12 12:37:41;;;;;;;8.18;3.35;;;;;;;;;;5048239;28;20026;-77
2023/01/12 12:45:14;;;;;;;5.43;3.20;;;;;;;;;;5033018;28;20542;-77
2023/01/12 12:46:16;;;;;;;7.18;3.33;;;;;;;;;;5033343;28;20040;-77
2023/01/12 12:48:51;;;;;;;4.78;2.85;;;;;;;;;;5052920;28;20472;-77
2023/01/12 12:51:16;;;;;;;5.03;2.92;;;;;;;;;;5037737;28;20424;-78
2023/01/12 12:53:44;;;;;;;4.75;2.78;;;;;;;;;;5052537;28;20099;-78
2023/01/12 12:56:13;;;;;;;4.32;2.55;;;;;;;;;;5035731;28;20025;-77
2023/01/12 12:58:53;;;;;;;4.53;2.53;;;;;;;;;;5037122;28;20033;-77
2023/01/12 13:01:18;;;;;;;6.55;2.85;;;;;;;;;;5052407;28;20021;-77
2023/01/12 13:03:49;;;;;;;6.22;2.83;;;;;;;;;;5019107;28;20022;-77
2023/01/12 13:06:21;;;;;;;5.28;2.95;;;;;;;;;;5036021;28;20075;-77
2023/01/12 13:08:49;;;;;;;5.30;2.20;;;;;;;;;;5035554;28;20041;-77
2023/01/12 13:11:15;;;;;;;8.18;2.28;;;;;;;;;;5037047;28;20033;-77
2023/01/12 13:13:58;;;;;;;5.28;2.40;;;;;;;;;;5052391;28;20029;-78
2023/01/12 13:16:28;;;;;;;4.20;2.30;;;;;;;;;;5052354;28;20100;-77
2023/01/12 13:18:53;;;;;;;2.53;1.80;;;;;;;;;;5018816;28;20029;-77
2023/01/12 13:21:41;;;;;;;2.88;1.98;;;;;;;;;;5037285;28;20192;-78
2023/01/12 13:24:10;;;;;;;4.60;2.60;;;;;;;;;;5036465;28;20037;-78
2023/01/12 13:26:36;;;;;;;3.58;2.10;;;;;;;;;;5036485;28;20434;-78
2023/01/12 13:29:26;;;;;;;2.25;1.67;;;;;;;;;;5036315;28;20100;-78
2023/01/12 13:31:56;;;;;;;3.55;1.55;;;;;;;;;;5036157;28;20024;-78
2023/01/12 13:34:30;;;;;;;2.97;1.80;;;;;;;;;;5019044;28;20033;-78
2023/01/12 13:37:22;;;;;;;2.72;1.88;;;;;;;;;;5036224;28;20100;-78
2023/01/12 13:40:16;;;;;;;2.90;1.75;;;;;;;;;;5002012;28;20079;-78
2023/01/12 13:45:28;;;;;;;2.90;1.48;;;;;;;;;;5021484;28;20103;-78
2023/01/12 13:47:54;;;;;;;3.72;1.50;;;;;;;;;;5002105;28;20029;-78
2023/01/12 13:50:25;;;;;;;2.60;1.52;;;;;;;;;;5036317;28;20042;-78
2023/01/12 13:52:58;;;;;;;1.90;1.15;;;;;;;;;;5035988;28;20109;-78
2023/01/12 13:55:27;;;;;;;2.05;1.55;;;;;;;;;;5018622;28;20029;-78
2023/01/12 13:58:02;;;;;;;1.63;1.38;;;;;;;;;;5017663;28;20120;-79
2023/01/12 14:00:31;;;;;;;1.25;1.15;;;;;;;;;;5035992;28;20021;-78
2023/01/12 14:02:57;;;;;;;1.70;1.30;;;;;;;;;;5035990;28;20502;-78
2023/01/12 14:05:44;;;;;;;1.80;1.40;;;;;;;;;;5018396;28;20072;-78
2023/01/12 14:08:28;;;;;;;0.98;0.93;;;;;;;;;;5035725;28;20041;-79
2023/01/12 14:11:03;;;;;;;1.42;1.05;;;;;;;;;;5051327;28;20025;-78
2023/01/12 14:13:35;;;;;;;1.20;1.10;;;;;;;;;;5035635;28;20037;-78
2023/01/12 14:18:47;;;;;;;1.45;1.17;;;;;;;;;;5020874;28;20508;-76
2023/01/12 14:21:27;;;;;;;2.47;1.00;;;;;;;;;;5017773;28;20045;-79
2023/01/12 14:24:11;;;;;;;0.98;0.90;;;;;;;;;;5035423;28;20112;-80
2023/01/12 14:26:37;;;;;;;1.85;1.02;;;;;;;;;;5017703;28;20043;-79
2023/01/12 14:29:02;;;;;;;1.20;1.10;;;;;;;;;;5035403;28;20476;-78
2023/01/12 14:31:47;;;;;;;1.50;1.00;;;;;;;;;;5050822;28;20029;-77
2023/01/12 14:34:26;;;;;;;1.88;1.00;;;;;;;;;;5033984;28;20116;-79
2023/01/12 14:36:51;;;;;;;1.00;0.85;;;;;;;;;;5033777;28;20047;-79
2023/01/12 14:39:23;;;;;;;1.35;1.00;;;;;;;;;;5050506;28;20468;-79
2023/01/12 14:47:26;;;;;;;10.63;0.90;;;;;;;;;;5020253;28;20500;-78
2023/01/12 14:49:51;;;;;;;1.00;0.90;;;;;;;;;;5017213;28;20172;-79
2023/01/12 14:52:24;;;;;;;1.95;0.90;;;;;;;;;;5017076;28;20124;-79
2023/01/12 14:54:51;;;;;;;1.02;0.82;;;;;;;;;;5035006;28;20037;-78
2023/01/12 14:57:25;;;;;;;1.90;0.70;;;;;;;;;;5034378;28;20088;-78
2023/01/12 14:59:51;;;;;;;2.95;0.80;;;;;;;;;;5034958;28;20041;-78
2023/01/12 15:02:23;;;;;;;2.53;0.80;;;;;;;;;;5017266;28;20029;-78
2023/01/12 15:04:51;;;;;;;1.15;0.70;;;;;;;;;;5017024;28;20021;-78
2023/01/12 15:07:19;;;;;;;1.05;0.93;;;;;;;;;;5034694;28;20026;-78
2023/01/12 15:10:11;;;;;;;1.67;0.70;;;;;;;;;;5016420;28;20029;-79
2023/01/12 15:12:47;;;;;;;0.70;0.70;;;;;;;;;;4994422;28;20037;-78
2023/01/12 15:26:25;;;;;;;1.65;0.82;;;;;;;;;;5034460;28;20071;-77
2023/01/12 15:28:50;;;;;;;0.40;0.40;;;;;;;;;;5016438;28;20065;-78
2023/01/12 15:31:19;;;;;;;0.85;0.75;;;;;;;;;;5034273;28;20037;-77
2023/01/12 15:33:44;;;;;;;0.65;0.65;;;;;;;;;;5034203;28;20097;-78
2023/01/12 15:36:13;;;;;;;0.70;0.70;;;;;;;;;;5016564;28;20061;-77
2023/01/12 15:38:38;;;;;;;2.72;0.80;;;;;;;;;;5034235;28;20388;-77
2023/01/12 15:41:04;;;;;;;1.48;0.80;;;;;;;;;;5033975;28;20034;-77
2023/01/12 15:43:29;;;;;;;0.73;0.70;;;;;;;;;;5016402;28;20029;-76
2023/01/12 15:45:55;;;;;;;8.77;0.88;;;;;;;;;;5034208;28;20041;-78
2023/01/12 15:48:20;;;;;;;0.70;0.70;;;;;;;;;;5016350;28;20040;-78
2023/01/12 15:50:46;;;;;;;5.18;1.67;;;;;;;;;;5016235;28;20036;-78
2023/01/12 15:53:20;;;;;;;3.17;1.10;;;;;;;;;;5016210;28;20036;-78
2023/01/12 15:55:45;;;;;;;3.78;1.52;;;;;;;;;;5033890;28;20036;-77
2023/01/12 15:58:11;;;;;;;1.02;0.93;;;;;;;;;;5015910;28;20038;-77
2023/01/12 16:00:37;;;;;;;4.60;0.80;;;;;;;;;;5033613;28;20025;-77
2023/01/12 16:03:03;;;;;;;1.73;1.00;;;;;;;;;;5016247;28;20140;-77